Latest Weather Observations for Essendon Airport

IDV60901

Issued at 3:51 am EST Tuesday 16 July 2024 (issued every 10 minutes, with the page automatically refreshed every 10 minutes)

About weather observations | Map of Melbourne area stations | Latest observations for Melbourne area | Other Formats
Station Details ID: 086038 Name: ESSENDON AIRPORT Lat: -37.73 Lon: 144.91 Height: 78.4 m
Data from the previous 72 hours. | See also: Recent months at Essendon Airport
Date/Time
EST
Temp
°C
App
Temp
°C
Dew
Point
°C
Rel
Hum
%
Delta-T
°C
Wind Press
QNH
hPa
Press
MSL
hPa
Rain since
9am
mm
Dir  Spd
km/h
Gust
km/h
Spd
kts
Gust
kts
16/03:32am 11.4 8.0 11.4 100 0.0 SSW 20 30 11 16 1002.0 1002.1 11.4
16/03:30am 11.4 8.0 11.4 100 0.0 SSW 20 30 11 16 1002.0 1002.1 11.4
16/03:00am 11.5 7.4 11.5 100 0.0 S 24 32 13 17 1001.6 1001.8 11.4
16/02:48am 11.5 6.7 11.5 100 0.0 S 28 43 15 23 1001.4 1001.6 11.4
16/02:45am 11.4 6.5 11.4 100 0.0 S 28 43 15 23 1001.3 1001.5 11.4
16/02:30am 10.9 7.6 10.9 100 0.0 S 19 26 10 14 1001.2 1001.3 11.4
16/02:23am 10.8 6.5 10.8 100 0.0 SW 24 33 13 18 1001.1 1001.2 10.4
16/02:00am 10.4 6.4 10.4 100 0.0 SW 22 30 12 16 1000.9 1001.0 10.2
16/01:57am 10.4 6.0 10.4 100 0.0 SW 24 35 13 19 1000.8 1000.9 10.0
16/01:45am 10.3 5.1 10.3 100 0.0 SW 28 59 15 32 1000.8 1000.9 9.4
16/01:43am 10.4 5.2 10.4 100 0.0 SW 28 59 15 32 1000.8 1000.9 9.2
16/01:30am 10.1 5.2 10.1 100 0.0 SW 26 39 14 21 1000.6 1000.7 8.8
16/01:24am 9.9 4.2 9.9 100 0.0 SW 30 46 16 25 1000.6 1000.7 8.8
16/01:00am 9.6 2.1 9.6 100 0.0 WSW 39 48 21 26 1000.4 1000.5 8.2
16/12:30am 9.5 2.0 9.5 100 0.0 WSW 39 56 21 30 1000.4 1000.5 5.8
16/12:00am 9.4 1.9 9.4 100 0.0 WSW 39 54 21 29 1000.4 1000.5 4.6
 
Date/Time
EST
Temp
°C
App
Temp
°C
Dew
Point
°C
Rel
Hum
%
Delta-T
°C
Wind Press
QNH
hPa
Press
MSL
hPa
Rain since
9am
mm
Dir  Spd
km/h
Gust
km/h
Spd
kts
Gust
kts
15/11:30pm 9.3 1.4 9.3 100 0.0 W 41 56 22 30 1000.6 1000.7 3.8
15/11:06pm 9.3 1.8 9.3 100 0.0 W 39 54 21 29 1000.8 1000.9 3.2
15/11:04pm 9.3 1.8 9.3 100 0.0 W 39 54 21 29 1000.8 1000.9 3.0
15/11:00pm 9.3 1.8 9.3 100 0.0 W 39 52 21 28 1000.9 1001.0 3.0
15/10:30pm 9.3 1.8 9.3 100 0.0 W 39 50 21 27 1001.4 1001.6 2.6
15/10:18pm 9.2 1.6 9.2 100 0.0 W 39 50 21 27 1001.6 1001.8 2.6
15/10:10pm 9.2 1.3 9.2 100 0.0 W 41 52 22 28 1001.7 1001.9 2.4
15/10:00pm 9.2 1.6 9.2 100 0.0 WSW 39 52 21 28 1001.8 1002.0 2.4
15/09:32pm 9.3 1.8 9.3 100 0.0 WSW 39 50 21 27 1002.2 1002.3 1.6
15/09:31pm 9.3 1.8 9.3 100 0.0 WSW 39 50 21 27 1002.2 1002.3 1.6
15/09:30pm 9.3 1.8 9.3 100 0.0 WSW 39 50 21 27 1002.2 1002.3 1.6
15/09:13pm 9.2 1.6 9.2 100 0.0 WSW 39 56 21 30 1002.2 1002.3 1.6
15/09:11pm 9.2 1.6 9.2 100 0.0 WSW 39 56 21 30 1002.2 1002.3 1.4
15/09:07pm 9.2 2.0 9.2 100 0.0 W 37 56 20 30 1002.2 1002.3 1.4
15/09:00pm 9.2 2.0 9.2 100 0.0 W 37 46 20 25 1002.2 1002.3 1.4
15/08:59pm 9.2 2.0 9.2 100 0.0 W 37 46 20 25 1002.3 1002.4 1.4
15/08:30pm 9.3 1.8 9.3 100 0.0 W 39 57 21 31 1002.6 1002.7 1.0
15/08:28pm 9.3 1.8 9.3 100 0.0 W 39 57 21 31 1002.6 1002.7 1.0
15/08:08pm 9.4 1.5 9.4 100 0.0 W 41 52 22 28 1002.8 1002.9 1.0
15/08:00pm 9.4 1.1 9.3 99 0.0 W 43 61 23 33 1002.7 1002.8 1.0
15/07:31pm 9.5 2.3 9.2 98 0.1 W 37 56 20 30 1002.8 1002.9 1.0
15/07:30pm 9.4 1.9 9.3 99 0.0 W 39 56 21 30 1002.8 1002.9 1.0
15/07:00pm 9.4 1.9 9.3 99 0.0 W 39 54 21 29 1003.1 1003.2 1.0
15/06:30pm 9.4 2.1 8.9 97 0.2 W 37 50 20 27 1003.3 1003.4 0.8
15/06:00pm 9.4 2.1 8.9 97 0.2 W 37 50 20 27 1003.4 1003.5 0.8
15/05:30pm 9.4 2.6 9.1 98 0.1 W 35 46 19 25 1003.5 1003.6 0.8
15/05:00pm 9.2 2.8 9.2 100 0.0 W 33 46 18 25 1003.6 1003.7 0.8
15/04:39pm 9.0 3.1 9.0 100 0.0 W 30 48 16 26 1003.8 1003.9 0.8
15/04:30pm 9.0 2.5 9.0 100 0.0 W 33 46 18 25 1003.8 1003.9 0.8
15/04:00pm 9.1 2.2 9.0 99 0.0 W 35 46 19 25 1004.1 1004.2 0.6
15/03:30pm 9.3 2.4 8.8 97 0.2 W 35 50 19 27 1004.2 1004.3 0.6
15/03:00pm 9.5 3.1 8.4 93 0.5 W 32 41 17 22 1004.3 1004.4 0.6
15/02:30pm 9.4 3.0 8.6 95 0.4 W 32 43 17 23 1004.5 1004.6 0.6
15/02:00pm 9.5 2.6 8.7 95 0.4 W 35 44 19 24 1004.7 1004.8 0.4
15/01:30pm 10.0 2.7 8.8 92 0.6 WSW 37 44 20 24 1005.1 1005.2 0.2
15/01:00pm 10.2 2.8 6.9 80 1.6 WSW 35 48 19 26 1005.4 1005.5 0.0
15/12:43pm 10.5 2.2 6.3 75 2.0 WSW 39 57 21 31 1005.7 1005.8 0.0
15/12:30pm 10.8 3.0 6.6 75 2.0 WSW 37 50 20 27 1005.9 1006.0 0.0
15/12:00pm 10.5 2.7 6.8 78 1.8 WSW 37 50 20 27 1006.6 1006.7 0.0
15/11:30am 10.3 3.4 7.4 82 1.4 W 33 44 18 24 1007.2 1007.3 0.0
15/11:00am 10.0 3.3 7.4 84 1.2 WSW 32 43 17 23 1007.6 1007.7 0.0
15/10:30am 10.3 4.0 7.4 82 1.4 W 30 35 16 19 1007.8 1007.9 0.0
15/10:00am 9.7 3.8 7.3 85 1.1 W 28 35 15 19 1007.9 1008.0 0.0
15/09:30am 8.7 2.8 7.3 91 0.7 WNW 28 41 15 22 1007.9 1008.0 0.0
15/09:00am 8.7 3.6 7.8 94 0.4 W 24 32 13 17 1008.0 1008.1 0.4
15/08:30am 7.4 1.5 7.3 99 0.0 WNW 28 35 15 19 1008.1 1008.2 0.4
15/08:00am 6.8 1.5 6.7 99 0.0 WNW 24 32 13 17 1008.3 1008.4 0.4
15/07:30am 6.7 1.4 6.6 99 0.0 W 24 32 13 17 1008.3 1008.4 0.4
15/07:00am 6.6 1.6 6.5 99 0.0 W 22 28 12 15 1008.5 1008.6 0.4
15/06:30am 6.7 1.7 6.6 99 0.0 W 22 28 12 15 1008.5 1008.6 0.4
15/06:00am 6.9 2.3 6.6 98 0.1 W 20 28 11 15 1008.6 1008.7 0.4
15/05:30am 7.0 2.1 6.9 99 0.0 W 22 28 12 15 1008.7 1008.8 0.4
15/05:00am 6.3 2.2 6.2 99 0.0 WNW 17 22 9 12 1008.8 1008.9 0.4
15/04:30am 6.1 2.0 6.0 99 0.0 W 17 24 9 13 1009.0 1009.1 0.4
15/04:00am 6.2 2.1 6.1 99 0.0 WNW 17 20 9 11 1009.3 1009.4 0.4
15/03:30am 6.5 2.1 6.4 99 0.0 WNW 19 24 10 13 1009.5 1009.6 0.4
15/03:00am 6.6 2.6 6.5 99 0.0 W 17 22 9 12 1009.8 1009.9 0.4
15/02:30am 7.0 2.5 6.9 99 0.0 W 20 26 11 14 1010.0 1010.1 0.4
15/02:00am 7.2 2.3 7.1 99 0.0 W 22 30 12 16 1010.1 1010.2 0.4
15/01:30am 7.5 3.1 7.4 99 0.0 W 20 28 11 15 1010.3 1010.4 0.4
15/01:00am 7.7 3.3 7.6 99 0.0 W 20 26 11 14 1010.5 1010.6 0.4
15/12:30am 7.8 2.7 7.7 99 0.0 W 24 28 13 15 1010.8 1010.9 0.4
15/12:00am 7.8 2.7 7.7 99 0.0 W 24 33 13 18 1011.2 1011.3 0.4
 
Date/Time
EST
Temp
°C
App
Temp
°C
Dew
Point
°C
Rel
Hum
%
Delta-T
°C
Wind Press
QNH
hPa
Press
MSL
hPa
Rain since
9am
mm
Dir  Spd
km/h
Gust
km/h
Spd
kts
Gust
kts
14/11:30pm 7.7 3.0 7.6 99 0.0 W 22 30 12 16 1011.5 1011.6 0.4
14/11:00pm 6.9 2.6 6.8 99 0.0 WNW 19 24 10 13 1011.9 1012.1 0.4
14/10:30pm 7.0 2.7 6.9 99 0.0 W 19 22 10 12 1012.2 1012.4 0.4
14/10:00pm 6.7 2.7 6.6 99 0.0 W 17 20 9 11 1012.6 1012.8 0.4
14/09:30pm 6.9 2.6 6.8 99 0.0 W 19 24 10 13 1012.7 1012.9 0.4
14/09:00pm 7.4 3.5 7.0 97 0.2 W 17 22 9 12 1013.0 1013.2 0.4
14/08:30pm 7.8 3.4 7.2 96 0.3 W 20 26 11 14 1013.1 1013.3 0.4
14/08:00pm 7.9 3.4 7.1 95 0.4 W 20 24 11 13 1013.0 1013.2 0.4
14/07:30pm 7.9 4.3 6.7 92 0.6 W 15 19 8 10 1013.2 1013.4 0.4
14/07:00pm 8.3 4.7 6.9 91 0.7 WSW 15 19 8 10 1013.3 1013.5 0.4
14/06:30pm 8.0 4.9 7.1 94 0.4 WSW 13 20 7 11 1013.2 1013.4 0.4
14/06:00pm 8.4 5.3 7.2 92 0.6 WSW 13 17 7 9 1013.2 1013.4 0.4
14/05:30pm 9.3 4.6 5.9 79 1.6 SW 20 32 11 17 1013.3 1013.5 0.4
14/05:00pm 10.0 4.7 4.8 70 2.3 SW 22 32 12 17 1013.3 1013.5 0.4
14/04:30pm 10.5 4.4 4.6 67 2.7 SW 26 32 14 17 1013.2 1013.4 0.4
14/04:00pm 10.6 5.3 4.9 68 2.6 SW 22 32 12 17 1013.3 1013.5 0.4
14/03:30pm 10.9 5.6 5.0 67 2.7 SW 22 35 12 19 1013.3 1013.5 0.4
14/03:00pm 11.0 5.5 6.0 71 2.3 SW 24 28 13 15 1013.2 1013.4 0.4
14/02:30pm 10.5 4.8 6.6 77 1.8 SW 26 33 14 18 1013.4 1013.6 0.4
14/02:00pm 10.7 6.6 8.5 86 1.1 SW 20 28 11 15 1013.5 1013.7 0.4
14/01:30pm 9.8 4.7 7.6 86 1.1 SW 24 30 13 16 1013.7 1013.9 0.2
14/01:00pm 10.0 5.4 8.3 89 0.8 WSW 22 28 12 15 1013.9 1014.1 0.2
14/12:30pm 9.4 5.0 7.3 87 1.0 SSW 20 33 11 18 1014.3 1014.5 0.2
14/12:00pm 10.5 5.9 6.6 77 1.8 SW 20 28 11 15 1014.8 1015.0 0.2
14/11:30am 10.2 5.3 8.6 90 0.8 SW 24 33 13 18 1015.3 1015.4 0.2
14/11:00am 9.1 4.1 7.9 92 0.6 WSW 24 32 13 17 1015.7 1015.8 0.2
14/10:30am 8.6 4.5 8.5 99 0.0 WSW 20 26 11 14 1015.9 1016.0 0.2
14/10:00am 7.8 3.5 7.8 100 0.0 WSW 20 30 11 16 1016.2 1016.3 0.0
14/09:30am 7.0 2.1 7.0 100 0.0 WSW 22 30 12 16 1016.1 1016.2 0.0
14/09:00am 7.1 2.6 7.1 100 0.0 W 20 26 11 14 1016.0 1016.1 4.6
14/08:30am 6.5 1.1 6.5 100 0.0 W 24 32 13 17 1015.9 1016.0 4.4
14/08:00am 6.4 2.0 6.4 100 0.0 W 19 24 10 13 1015.9 1016.0 4.4
14/07:30am 6.3 2.6 6.3 100 0.0 WSW 15 20 8 11 1016.0 1016.1 4.4
14/07:00am 6.3 3.7 6.3 100 0.0 S 9 15 5 8 1016.1 1016.2 4.2
14/06:30am 6.2 2.1 6.2 100 0.0 WSW 17 20 9 11 1015.8 1015.9 4.2
14/06:00am 6.0 1.5 6.0 100 0.0 W 19 24 10 13 1015.6 1015.7 4.2
14/05:30am 6.1 1.6 6.1 100 0.0 W 19 24 10 13 1015.4 1015.5 4.2
14/05:00am 6.1 2.0 6.1 100 0.0 W 17 20 9 11 1015.3 1015.4 4.2
14/04:30am 6.3 2.2 6.3 100 0.0 W 17 20 9 11 1015.5 1015.6 4.2
14/04:00am 6.3 2.6 6.3 100 0.0 W 15 19 8 10 1015.7 1015.8 4.2
14/03:30am 6.2 2.1 6.2 100 0.0 WSW 17 20 9 11 1015.8 1015.9 4.2
14/03:00am 6.3 2.6 6.3 100 0.0 W 15 20 8 11 1015.9 1016.0 4.2
14/02:30am 6.4 3.5 6.4 100 0.0 WSW 11 13 6 7 1016.0 1016.1 4.2
14/02:00am 7.4 3.9 7.4 100 0.0 WSW 15 19 8 10 1016.0 1016.1 4.2
14/01:30am 7.5 4.5 7.5 100 0.0 W 13 17 7 9 1015.9 1016.0 4.2
14/01:00am 7.6 5.0 7.6 100 0.0 W 11 13 6 7 1015.8 1015.9 4.2
14/12:30am 8.1 6.3 8.1 100 0.0 WSW 7 9 4 5 1016.1 1016.2 4.2
14/12:21am 8.2 6.5 8.2 100 0.0 WSW 7 9 4 5 1016.2 1016.3 4.2
14/12:00am 8.3 6.2 8.3 100 0.0 WSW 9 11 5 6 1016.3 1016.4 4.0
 
Date/Time
EST
Temp
°C
App
Temp
°C
Dew
Point
°C
Rel
Hum
%
Delta-T
°C
Wind Press
QNH
hPa
Press
MSL
hPa
Rain since
9am
mm
Dir  Spd
km/h
Gust
km/h
Spd
kts
Gust
kts
13/11:30pm 8.2 5.7 8.2 100 0.0 W 11 13 6 7 1016.5 1016.6 4.0
13/11:00pm 8.4 5.6 8.4 100 0.0 W 13 15 7 8 1016.8 1016.9 4.0
13/10:30pm 8.6 6.2 8.6 100 0.0 W 11 13 6 7 1016.9 1017.0 4.0
13/10:00pm 8.7 6.3 8.7 100 0.0 WSW 11 15 6 8 1017.1 1017.2 4.0
13/09:48pm 8.8 6.4 8.8 100 0.0 WSW 11 13 6 7 1017.1 1017.2 4.0
13/09:33pm 8.9 6.6 8.9 100 0.0 SW 11 15 6 8 1017.2 1017.3 3.8
13/09:30pm 8.9 6.6 8.9 100 0.0 SW 11 15 6 8 1017.1 1017.2 3.8
13/09:13pm 8.8 6.4 8.8 100 0.0 SW 11 13 6 7 1017.0 1017.1 3.8
13/09:00pm 8.9 5.8 8.9 100 0.0 SW 15 19 8 10 1017.0 1017.1 3.8
13/08:43pm 9.1 7.2 9.1 100 0.0 SW 9 15 5 8 1016.9 1017.0 3.2
13/08:42pm 9.1 7.2 9.1 100 0.0 SW 9 13 5 7 1016.9 1017.0 3.0
13/08:30pm 9.0 7.6 9.0 100 0.0 S 6 7 3 4 1016.9 1017.0 3.0
13/08:17pm 8.9 7.3 8.9 100 0.0 S 7 11 4 6 1017.0 1017.1 2.8
13/08:00pm 8.9 7.0 8.9 100 0.0 SSW 9 11 5 6 1017.1 1017.2 2.6
13/07:49pm 9.0 6.3 9.0 100 0.0 SSW 13 17 7 9 1017.1 1017.2 2.0
13/07:40pm 9.4 7.6 9.4 100 0.0 WSW 9 13 5 7 1017.1 1017.2 1.0
13/07:30pm 9.3 7.5 9.3 100 0.0 W 9 11 5 6 1016.9 1017.0 0.4
13/07:00pm 9.1 7.2 9.1 100 0.0 WSW 9 11 5 6 1016.9 1017.0 0.4
13/06:38pm 9.4 7.6 9.4 100 0.0 SSW 9 13 5 7 1016.9 1017.0 0.4
13/06:30pm 9.3 6.7 9.3 100 0.0 SSW 13 20 7 11 1016.8 1016.9 0.4
13/06:17pm 9.7 7.6 9.7 100 0.0 WSW 11 20 6 11 1016.7 1016.8 0.4
13/06:00pm 9.9 7.8 9.9 100 0.0 WSW 11 15 6 8 1016.6 1016.7 0.2
13/05:30pm 10.0 8.5 9.2 95 0.4 SSW 7 11 4 6 1016.2 1016.3 0.2
13/05:00pm 10.8 7.9 8.0 83 1.4 SSE 13 20 7 11 1016.2 1016.3 0.0
13/04:30pm 11.1 7.9 7.0 76 2.0 S 13 17 7 9 1016.2 1016.3 0.0
13/04:00pm 11.3 8.3 7.8 79 1.7 S 13 17 7 9 1016.0 1016.1 0.0
13/03:30pm 11.3 8.2 8.7 84 1.3 SSE 15 20 8 11 1015.9 1016.0 0.0
13/03:00pm 11.8 7.5 7.7 76 2.0 S 20 26 11 14 1016.0 1016.1 0.0
13/02:30pm 12.3 7.3 6.6 68 2.7 SW 22 32 12 17 1015.7 1015.8 0.0
13/02:00pm 12.6 8.1 6.2 65 3.0 S 19 30 10 16 1015.7 1015.8 0.0
13/01:30pm 13.7 8.9 7.2 65 3.2 SSW 22 30 12 16 1015.8 1015.9 0.0
13/01:00pm 13.0 8.7 7.7 70 2.6 SW 20 30 11 16 1016.1 1016.2 0.0
13/12:30pm 13.3 9.9 9.0 75 2.2 SW 17 24 9 13 1016.4 1016.5 0.0
13/12:00pm 11.9 7.8 8.0 77 1.9 SW 19 24 10 13 1016.9 1017.0 0.0
13/11:30am 12.2 8.3 9.4 83 1.4 WSW 20 28 11 15 1017.2 1017.3 0.0
13/11:00am 11.5 7.2 9.4 87 1.1 W 22 26 12 14 1017.6 1017.7 0.0
13/10:30am 11.2 7.1 10.1 93 0.6 WSW 22 28 12 15 1017.6 1017.7 0.0
13/10:28am 11.2 7.2 10.4 95 0.4 WSW 22 28 12 15 1017.7 1017.8 0.0
13/10:10am 10.5 6.3 9.6 94 0.5 WSW 22 32 12 17 1017.8 1017.9 0.0
13/10:00am 10.4 6.6 9.8 96 0.3 WSW 20 28 11 15 1017.7 1017.8 0.0
13/09:30am 10.4 7.9 9.8 96 0.3 W 13 17 7 9 1017.4 1017.5 0.0
13/09:00am 9.8 7.3 9.8 100 0.0 WNW 13 15 7 8 1017.2 1017.3 1.0
13/08:30am 8.7 6.3 8.7 100 0.0 WNW 11 13 6 7 1017.1 1017.2 1.0
13/08:00am 8.2 5.7 8.2 100 0.0 WNW 11 15 6 8 1016.9 1017.0 1.0
13/07:30am 8.4 6.3 8.4 100 0.0 W 9 9 5 5 1016.8 1016.9 1.0
13/07:00am 8.5 6.5 8.5 100 0.0 NW 9 11 5 6 1016.7 1016.8 1.0
13/06:30am 8.5 6.1 8.5 100 0.0 NW 11 13 6 7 1016.4 1016.5 1.0
13/06:00am 8.4 5.9 8.4 100 0.0 NNW 11 13 6 7 1016.1 1016.2 1.0
13/05:55am 8.4 5.9 8.4 100 0.0 NNW 11 13 6 7 1016.2 1016.3 1.0
13/05:35am 8.4 5.9 8.4 100 0.0 NNW 11 11 6 6 1016.2 1016.3 1.0
13/05:31am 8.5 6.1 8.5 100 0.0 NNW 11 11 6 6 1016.2 1016.3 1.0
13/05:30am 8.5 6.1 8.5 100 0.0 NNW 11 11 6 6 1016.2 1016.3 1.0
13/05:23am 8.6 6.6 8.6 100 0.0 NW 9 11 5 6 1016.1 1016.2 1.0
13/05:00am 8.4 5.9 8.4 100 0.0 NNW 11 11 6 6 1016.0 1016.1 1.0
13/04:48am 8.1 5.6 8.1 100 0.0 NNW 11 11 6 6 1016.0 1016.1 1.0
13/04:30am 8.2 5.7 8.2 100 0.0 NNW 11 13 6 7 1016.1 1016.2 0.8
13/04:27am 8.2 5.7 8.2 100 0.0 NNW 11 13 6 7 1016.1 1016.2 0.8
13/04:21am 8.0 5.5 8.0 100 0.0 NNW 11 13 6 7 1016.1 1016.2 0.8
13/04:00am 8.3 5.8 8.3 100 0.0 NW 11 15 6 8 1016.0 1016.1 0.8

Latest Capital City Observations: Canberra | Sydney | Melbourne | Brisbane | Adelaide | Perth | Hobart | Darwin

Other formats

Comma delimited format used in spreadsheet applications
http://www.bom.gov.au/fwo/IDV60901/IDV60901.95866.axf

JavaScript Object Notation format (JSON) in row-major order
http://www.bom.gov.au/fwo/IDV60901/IDV60901.95866.json

Data quality

Most of these data are generated automatically and are frequently updated. Quality checks on data are not normally performed. It is possible for incorrect values to appear. Refer to information at About Latest Weather Observations and please check the disclaimer before using these data.